createdAt,value
2018-06-28T00:00:34.692Z,14.52
2018-06-28T00:01:13.691Z,14.42
2018-06-28T00:02:13.691Z,14.45
2018-06-28T00:03:27.696Z,14.48
2018-06-28T00:05:45.442Z,14.49
2018-06-28T00:06:47.449Z,14.52
2018-06-28T00:07:45.446Z,14.46
2018-06-28T00:10:17.197Z,14.49
2018-06-28T00:11:16.551Z,14.52
2018-06-28T00:12:18.674Z,14.46
2018-06-28T00:13:23.697Z,14.42
2018-06-28T00:14:17.704Z,14.49
2018-06-28T00:15:17.699Z,14.45
2018-06-28T00:16:17.699Z,14.34
2018-06-28T00:18:55.966Z,14.41
2018-06-28T00:19:49.990Z,14.45
2018-06-28T00:20:49.966Z,14.52
2018-06-28T00:21:49.964Z,14.45
2018-06-28T00:23:17.465Z,14.34
2018-06-28T00:23:50.471Z,14.31
2018-06-28T00:25:11.468Z,14.21
2018-06-28T00:25:50.466Z,14.23
2018-06-28T00:28:21.493Z,14.23
2018-06-28T00:29:22.214Z,14.20
2018-06-28T00:30:22.228Z,14.13
2018-06-28T00:31:24.720Z,14.21
2018-06-28T00:32:22.683Z,14.20
2018-06-28T00:33:22.716Z,14.17
2018-06-28T00:34:22.192Z,14.11
2018-06-28T00:35:24.647Z,14.13
2018-06-28T00:36:23.226Z,14.05
2018-06-28T00:37:25.214Z,14.02
2018-06-28T00:38:23.214Z,13.99
2018-06-28T00:39:29.213Z,14.04
2018-06-28T00:41:54.345Z,14.05
2018-06-28T00:45:57.794Z,14.06
2018-06-28T00:46:58.531Z,14.09
2018-06-28T00:47:58.567Z,14.02
2018-06-28T00:48:58.114Z,14.01
2018-06-28T00:50:01.023Z,13.94
2018-06-28T00:50:59.029Z,14.04
2018-06-28T00:51:58.517Z,13.99
2018-06-28T00:52:59.522Z,13.98
2018-06-28T00:53:59.521Z,13.94
2018-06-28T00:54:59.521Z,13.91
2018-06-28T00:55:59.522Z,13.96
2018-06-28T00:56:59.129Z,13.96
2018-06-28T00:58:00.030Z,13.99
2018-06-28T00:59:00.958Z,14.01
2018-06-28T01:00:02.776Z,14.05
2018-06-28T01:01:00.554Z,14.09
2018-06-28T01:02:02.521Z,14.08
2018-06-28T01:03:14.521Z,14.04
2018-06-28T01:04:00.522Z,13.98
2018-06-28T01:05:01.026Z,13.93
2018-06-28T01:07:31.676Z,13.94
2018-06-28T01:08:57.346Z,13.91
2018-06-28T01:09:32.406Z,13.87
2018-06-28T01:10:53.907Z,13.91
2018-06-28T01:11:34.839Z,13.83
2018-06-28T01:12:32.909Z,13.96
2018-06-28T01:13:32.910Z,13.88
2018-06-28T01:16:25.657Z,13.87
2018-06-28T01:17:06.106Z,13.91
2018-06-28T01:18:04.132Z,13.88
2018-06-28T01:19:25.220Z,13.87
2018-06-28T01:20:08.100Z,13.86
2018-06-28T01:21:05.165Z,13.79
2018-06-28T01:22:05.165Z,13.80
2018-06-28T01:23:05.165Z,13.81
2018-06-28T01:24:05.666Z,13.80
2018-06-28T01:25:05.665Z,13.76
2018-06-28T01:27:37.166Z,13.83
2018-06-28T01:28:59.171Z,13.76
2018-06-28T01:29:37.180Z,13.73
2018-06-28T01:32:10.946Z,13.72
2018-06-28T01:33:29.957Z,13.71
2018-06-28T01:34:08.958Z,13.68
2018-06-28T01:35:30.453Z,13.65
2018-06-28T01:36:12.386Z,13.68
2018-06-28T01:37:09.454Z,13.65
2018-06-28T01:38:11.456Z,13.63
2018-06-28T01:39:15.952Z,13.65
2018-06-28T01:40:09.178Z,13.54
2018-06-28T01:42:41.439Z,13.51
2018-06-28T01:43:41.445Z,13.51
2018-06-28T01:46:14.505Z,13.32
2018-06-28T01:47:13.068Z,13.29
2018-06-28T01:48:13.069Z,13.29
2018-06-28T01:50:44.810Z,13.32
2018-06-28T01:51:44.818Z,13.24
2018-06-28T01:52:44.309Z,13.31
2018-06-28T01:53:45.317Z,13.29
2018-06-28T01:54:45.317Z,13.25
2018-06-28T01:55:45.317Z,13.32
2018-06-28T01:56:45.316Z,13.29
2018-06-28T01:58:06.817Z,13.21
2018-06-28T01:59:08.818Z,13.14
2018-06-28T01:59:45.817Z,13.24
2018-06-28T02:00:45.816Z,13.29
2018-06-28T02:03:23.556Z,13.22
2018-06-28T02:04:17.567Z,13.21
2018-06-28T02:05:17.560Z,13.19
2018-06-28T02:06:18.063Z,13.16
2018-06-28T02:10:20.861Z,13.03
2018-06-28T02:11:47.868Z,13.01
2018-06-28T02:12:20.865Z,13.03
2018-06-28T02:13:23.368Z,12.95
2018-06-28T02:14:21.373Z,12.81
2018-06-28T02:15:21.372Z,12.84
2018-06-28T02:16:21.369Z,12.84
2018-06-28T02:17:20.960Z,12.73
2018-06-28T02:18:23.867Z,12.69
2018-06-28T02:19:42.868Z,12.73
2018-06-28T02:20:21.344Z,12.69
2018-06-28T02:22:52.859Z,12.71
2018-06-28T02:23:53.588Z,12.73
2018-06-28T02:24:53.587Z,12.67
2018-06-28T02:25:54.144Z,12.71
2018-06-28T02:26:54.088Z,12.67
2018-06-28T02:27:54.089Z,12.73
2018-06-28T02:30:25.705Z,12.74
2018-06-28T02:32:57.198Z,12.70
2018-06-28T02:33:57.201Z,12.62
2018-06-28T02:34:57.208Z,12.69
2018-06-28T02:36:03.701Z,12.63
2018-06-28T02:37:12.700Z,12.61
2018-06-28T02:39:51.154Z,12.63
2018-06-28T02:40:35.201Z,12.59
2018-06-28T02:41:29.199Z,12.58
2018-06-28T02:42:43.699Z,12.62
2018-06-28T02:43:35.700Z,12.69
2018-06-28T02:44:31.164Z,12.63
2018-06-28T02:45:29.699Z,12.62
2018-06-28T02:48:01.453Z,12.70
2018-06-28T02:49:22.461Z,12.67
2018-06-28T02:50:01.460Z,12.58
2018-06-28T02:51:01.971Z,12.61
2018-06-28T02:52:01.961Z,12.59
2018-06-28T02:53:01.304Z,12.55
2018-06-28T02:54:01.400Z,12.55
2018-06-28T02:55:23.462Z,12.59
2018-06-28T02:56:02.460Z,12.55
2018-06-28T02:57:02.457Z,12.62
2018-06-28T02:58:02.460Z,12.61
2018-06-28T02:59:01.931Z,12.63
2018-06-28T03:01:36.170Z,12.67
2018-06-28T03:02:36.175Z,12.67
2018-06-28T03:03:55.175Z,12.63
2018-06-28T03:04:34.675Z,12.66
2018-06-28T03:07:12.047Z,12.62
2018-06-28T03:08:06.057Z,12.63
2018-06-28T03:09:06.057Z,12.58
2018-06-28T03:11:39.256Z,12.63
2018-06-28T03:14:30.259Z,12.62
2018-06-28T03:15:15.276Z,12.44
2018-06-28T03:16:09.274Z,12.40
2018-06-28T03:17:30.765Z,12.41
2018-06-28T03:18:09.779Z,12.49
2018-06-28T03:19:11.233Z,12.46
2018-06-28T03:20:09.765Z,12.43
2018-06-28T03:21:10.270Z,12.41
2018-06-28T03:22:10.266Z,12.46
2018-06-28T03:23:10.265Z,12.51
2018-06-28T03:24:10.273Z,12.59
2018-06-28T03:25:10.772Z,12.46
2018-06-28T03:29:36.582Z,12.49
2018-06-28T03:30:14.092Z,12.38
2018-06-28T03:31:20.089Z,12.38
2018-06-28T03:33:48.028Z,12.43
2018-06-28T03:34:46.596Z,12.51
2018-06-28T03:35:48.038Z,12.51
2018-06-28T03:36:47.594Z,12.63
2018-06-28T03:38:07.596Z,12.55
2018-06-28T03:39:08.097Z,12.58
2018-06-28T03:39:46.323Z,12.56
2018-06-28T03:42:39.604Z,12.74
2018-06-28T03:44:50.102Z,12.76
2018-06-28T03:45:50.146Z,12.73
2018-06-28T03:46:52.541Z,12.70
2018-06-28T03:51:14.282Z,12.73
2018-06-28T03:52:14.288Z,12.62
2018-06-28T03:52:53.293Z,12.80
2018-06-28T03:55:25.036Z,12.76
2018-06-28T03:56:25.043Z,12.84
2018-06-28T03:57:27.580Z,12.94
2018-06-28T04:00:10.764Z,12.92
2018-06-28T04:00:56.772Z,12.94
2018-06-28T04:02:17.772Z,13.04
2018-06-28T04:02:58.736Z,13.04
2018-06-28T04:03:59.704Z,12.99
2018-06-28T04:04:58.731Z,12.95
2018-06-28T04:05:57.285Z,13.06
2018-06-28T04:06:58.703Z,13.06
2018-06-28T04:11:22.905Z,13.01
2018-06-28T04:12:00.464Z,12.94
2018-06-28T04:13:01.397Z,12.92
2018-06-28T04:17:24.638Z,12.91
2018-06-28T04:18:24.630Z,12.94
2018-06-28T04:19:24.645Z,13.06
2018-06-28T04:21:56.387Z,13.09
2018-06-28T04:22:35.399Z,13.13
2018-06-28T04:23:35.398Z,13.13
2018-06-28T04:24:35.896Z,13.13
2018-06-28T04:25:35.896Z,13.10
2018-06-28T04:26:35.896Z,13.25
2018-06-28T04:27:35.904Z,13.19
2018-06-28T04:31:41.104Z,13.12
2018-06-28T04:32:40.065Z,13.25
2018-06-28T04:34:00.111Z,13.12
2018-06-28T04:34:39.118Z,13.22
2018-06-28T04:36:00.612Z,13.27
2018-06-28T04:37:01.610Z,13.29
2018-06-28T04:38:00.611Z,13.29
2018-06-28T04:38:39.643Z,13.31
2018-06-28T04:39:46.119Z,13.31
2018-06-28T04:40:40.111Z,13.44
2018-06-28T04:41:40.111Z,13.48
2018-06-28T04:42:39.595Z,13.43
2018-06-28T04:45:34.310Z,13.57
2018-06-28T04:47:43.313Z,13.62
2018-06-28T04:50:14.800Z,13.75
2018-06-28T04:51:14.856Z,13.81
2018-06-28T04:52:14.813Z,13.81
2018-06-28T04:53:14.281Z,13.91
2018-06-28T04:56:09.500Z,13.91
2018-06-28T04:57:12.473Z,13.96
2018-06-28T04:57:46.543Z,14.01
2018-06-28T04:58:53.044Z,14.06
2018-06-28T04:59:53.040Z,14.11
2018-06-28T05:01:07.377Z,14.09
2018-06-28T05:01:47.039Z,14.16
2018-06-28T05:02:47.042Z,14.16
2018-06-28T05:03:49.541Z,14.16
2018-06-28T05:04:46.762Z,14.21
2018-06-28T05:07:20.451Z,14.29
2018-06-28T05:08:40.013Z,14.29
2018-06-28T05:09:20.445Z,14.34
2018-06-28T05:10:39.587Z,14.34
2018-06-28T05:11:18.685Z,14.38
2018-06-28T05:12:19.512Z,14.42
2018-06-28T05:13:40.511Z,14.39
2018-06-28T05:14:19.512Z,14.44
2018-06-28T05:15:47.011Z,14.45
2018-06-28T05:16:41.011Z,14.57
2018-06-28T05:17:20.035Z,14.54
2018-06-28T05:18:20.020Z,14.61
2018-06-28T05:19:22.511Z,14.61
2018-06-28T05:20:22.511Z,14.60
2018-06-28T05:21:41.513Z,14.71
2018-06-28T05:22:20.520Z,14.75
2018-06-28T05:23:20.162Z,14.74
2018-06-28T05:24:20.262Z,14.80
2018-06-28T05:25:20.357Z,14.86
2018-06-28T05:26:43.456Z,14.79
2018-06-28T05:27:21.513Z,14.93
2018-06-28T05:28:23.512Z,14.95
2018-06-28T05:29:42.521Z,15.00
2018-06-28T05:30:22.943Z,15.01
2018-06-28T05:31:21.510Z,15.16
2018-06-28T05:32:21.108Z,15.27
2018-06-28T05:33:22.014Z,15.38
2018-06-28T05:34:22.014Z,15.44
2018-06-28T05:35:22.011Z,15.46
2018-06-28T05:36:26.443Z,15.46
2018-06-28T05:39:20.880Z,15.56
2018-06-28T05:40:14.880Z,15.48
2018-06-28T05:41:07.879Z,15.64
2018-06-28T05:41:54.392Z,15.49
2018-06-28T05:43:14.580Z,15.59
2018-06-28T05:43:54.377Z,15.64
2018-06-28T05:44:54.379Z,15.67
2018-06-28T05:46:01.312Z,15.80
2018-06-28T05:46:54.881Z,15.86
2018-06-28T05:47:54.880Z,15.93
2018-06-28T05:49:08.880Z,15.91
2018-06-28T05:50:16.890Z,16.04
2018-06-28T05:51:15.475Z,15.95
2018-06-28T05:51:54.573Z,15.93
2018-06-28T05:53:22.380Z,16.04
2018-06-28T05:53:55.394Z,16.22
2018-06-28T05:55:22.409Z,16.26
2018-06-28T05:56:09.880Z,16.25
2018-06-28T05:57:02.883Z,16.45
2018-06-28T05:58:17.900Z,16.47
2018-06-28T05:59:16.891Z,16.52
2018-06-28T06:01:27.764Z,16.55
2018-06-28T06:02:33.645Z,16.65
2018-06-28T06:03:27.646Z,16.70
2018-06-28T06:04:49.145Z,16.70
2018-06-28T06:05:48.353Z,16.81
2018-06-28T06:06:55.145Z,16.91
2018-06-28T06:07:27.495Z,17.05
2018-06-28T06:08:28.171Z,17.07
2018-06-28T06:11:20.905Z,17.24
2018-06-28T06:15:02.852Z,17.43
2018-06-28T06:16:02.859Z,17.57
2018-06-28T06:17:02.859Z,17.62
2018-06-28T06:18:03.361Z,17.71
2018-06-28T06:19:02.595Z,17.74
2018-06-28T06:20:02.695Z,17.81
2018-06-28T06:21:03.365Z,17.84
2018-06-28T06:22:17.859Z,17.91
2018-06-28T06:23:17.860Z,18.11
2018-06-28T06:24:03.898Z,18.10
2018-06-28T06:25:03.872Z,18.21
2018-06-28T06:26:05.326Z,18.21
2018-06-28T06:27:04.359Z,18.34
2018-06-28T06:28:04.359Z,18.36
2018-06-28T06:29:04.359Z,18.32
2018-06-28T06:31:35.389Z,18.53
2018-06-28T06:34:07.635Z,18.76
2018-06-28T06:35:09.074Z,18.83
2018-06-28T06:36:07.117Z,18.87
2018-06-28T06:41:42.235Z,19.09
2018-06-28T06:43:03.241Z,19.12
2018-06-28T06:43:42.241Z,19.24
2018-06-28T06:44:42.751Z,19.27
2018-06-28T06:48:59.550Z,19.67
2018-06-28T06:51:38.054Z,19.86
2018-06-28T06:52:17.068Z,19.92
2018-06-28T06:53:18.531Z,19.98
2018-06-28T06:56:02.808Z,20.17
2018-06-28T06:56:48.261Z,20.17
2018-06-28T06:58:13.218Z,20.25
2018-06-28T06:58:49.282Z,20.42
2018-06-28T07:01:26.777Z,20.50
2018-06-28T07:03:52.324Z,20.69
2018-06-28T07:07:54.677Z,20.72
2018-06-28T07:08:55.403Z,20.83
2018-06-28T07:09:54.878Z,20.96
2018-06-28T07:10:55.905Z,20.94
2018-06-28T07:11:55.143Z,21.03
2018-06-28T07:13:01.906Z,21.05
2018-06-28T07:13:55.903Z,21.06
2018-06-28T07:15:03.363Z,21.11
2018-06-28T07:15:55.612Z,21.13
2018-06-28T07:17:23.403Z,21.24
2018-06-28T07:17:56.403Z,21.21
2018-06-28T07:18:56.411Z,21.34
2018-06-28T07:20:01.336Z,21.42
2018-06-28T07:20:56.903Z,21.43
2018-06-28T07:25:14.342Z,21.75
2018-06-28T07:26:23.353Z,21.70
2018-06-28T07:27:21.359Z,21.73
2018-06-28T07:28:14.355Z,21.86
2018-06-28T07:29:20.941Z,21.94
2018-06-28T07:30:14.846Z,21.82
2018-06-28T07:31:00.846Z,21.89
2018-06-28T07:32:01.782Z,21.83
2018-06-28T07:34:52.811Z,21.96
2018-06-28T07:38:42.009Z,22.23
2018-06-28T07:40:03.025Z,22.21
2018-06-28T07:40:36.006Z,22.31
2018-06-28T07:41:37.472Z,22.36
2018-06-28T07:42:42.512Z,22.46
2018-06-28T07:45:07.890Z,22.69
2018-06-28T07:46:07.898Z,22.70
2018-06-28T07:47:09.900Z,22.82
2018-06-28T07:48:14.397Z,22.75
2018-06-28T07:51:06.780Z,22.94
2018-06-28T07:52:00.271Z,23.07
2018-06-28T07:54:25.524Z,23.29
2018-06-28T07:55:13.634Z,23.42
2018-06-28T07:56:11.017Z,23.42
2018-06-28T07:57:26.206Z,23.41
2018-06-28T07:58:12.031Z,23.45
2018-06-28T08:00:51.544Z,23.47
2018-06-28T08:03:21.870Z,23.52
2018-06-28T08:04:17.440Z,23.62
2018-06-28T08:05:17.040Z,23.64
2018-06-28T08:06:17.143Z,23.62
2018-06-28T08:07:17.947Z,23.74
2018-06-28T08:08:17.939Z,23.53
2018-06-28T08:10:51.174Z,23.62
2018-06-28T08:11:49.718Z,23.60
2018-06-28T08:15:52.934Z,23.67
2018-06-28T08:17:14.951Z,23.87
2018-06-28T08:17:52.940Z,23.84
2018-06-28T08:25:20.813Z,24.05
2018-06-28T08:25:59.822Z,23.89
2018-06-28T08:26:59.856Z,23.90
2018-06-28T08:28:14.324Z,23.72
2018-06-28T08:30:33.712Z,23.54
2018-06-28T08:31:31.719Z,23.59
2018-06-28T08:34:09.350Z,23.69
2018-06-28T08:35:05.362Z,23.71
2018-06-28T08:36:04.868Z,23.78
2018-06-28T08:38:34.384Z,24.18
2018-06-28T08:39:55.469Z,24.30
2018-06-28T08:40:35.095Z,24.39
2018-06-28T08:41:56.588Z,24.39
2018-06-28T08:42:35.594Z,24.23
2018-06-28T08:43:56.591Z,24.24
2018-06-28T08:44:35.592Z,24.04
2018-06-28T08:47:21.343Z,23.69
2018-06-28T08:48:07.860Z,23.68
2018-06-28T08:49:07.398Z,23.69
2018-06-28T08:50:07.850Z,23.64
2018-06-28T08:53:00.236Z,23.42
2018-06-28T08:53:39.237Z,23.41
2018-06-28T08:54:40.207Z,23.49
2018-06-28T09:00:27.839Z,23.41
2018-06-28T09:01:15.275Z,23.52
2018-06-28T09:04:51.495Z,24.08
2018-06-28T09:05:47.540Z,24.27
2018-06-28T09:06:47.987Z,24.44
2018-06-28T09:08:06.987Z,24.64
2018-06-28T09:08:47.419Z,24.77
2018-06-28T09:09:45.987Z,24.97
2018-06-28T09:15:41.620Z,25.63
2018-06-28T09:16:20.632Z,25.79
2018-06-28T09:17:20.627Z,25.64
2018-06-28T09:18:21.127Z,25.69
2018-06-28T09:19:23.132Z,25.78
2018-06-28T09:20:21.140Z,25.79
2018-06-28T09:21:21.125Z,25.79
2018-06-28T09:22:20.732Z,25.72
2018-06-28T09:23:20.832Z,25.71
2018-06-28T09:28:57.435Z,26.17
2018-06-28T09:30:17.015Z,26.13
2018-06-28T09:31:17.010Z,26.21
2018-06-28T09:31:56.501Z,26.24
2018-06-28T09:33:02.499Z,26.19
2018-06-28T09:33:55.852Z,26.03
2018-06-28T09:35:17.502Z,25.81
2018-06-28T09:35:58.997Z,25.67
2018-06-28T09:41:30.572Z,25.76
2018-06-28T09:42:31.311Z,25.72
2018-06-28T09:43:32.771Z,25.81
2018-06-28T09:44:33.805Z,26.01
2018-06-28T09:45:33.806Z,26.09
2018-06-28T09:46:33.808Z,25.91
2018-06-28T09:47:31.805Z,26.01
2018-06-28T09:48:46.316Z,25.91
2018-06-28T09:51:17.686Z,26.00
2018-06-28T09:52:24.700Z,26.03
2018-06-28T09:54:56.496Z,26.23
2018-06-28T09:55:34.843Z,26.01
2018-06-28T09:56:37.469Z,25.90
2018-06-28T09:59:07.236Z,26.27
2018-06-28T10:00:09.276Z,26.27
2018-06-28T10:01:07.239Z,26.42
2018-06-28T10:02:36.183Z,26.61
2018-06-28T10:03:06.921Z,26.54
2018-06-28T10:04:07.738Z,26.36
2018-06-28T10:05:13.738Z,26.19
2018-06-28T10:06:07.742Z,26.32
2018-06-28T10:08:38.782Z,26.78
2018-06-28T10:09:40.505Z,26.83
2018-06-28T10:12:25.203Z,26.76
2018-06-28T10:13:32.210Z,26.84
2018-06-28T10:14:11.210Z,26.97
2018-06-28T10:15:11.710Z,26.93
2018-06-28T10:16:11.709Z,27.01
2018-06-28T10:17:32.710Z,27.13
2018-06-28T10:18:11.718Z,27.24
2018-06-28T10:22:14.920Z,26.93
2018-06-28T10:23:28.917Z,27.09
2018-06-28T10:24:14.916Z,27.09
2018-06-28T10:25:35.505Z,27.25
2018-06-28T10:26:21.419Z,27.40
2018-06-28T10:29:01.461Z,27.34
2018-06-28T10:31:18.829Z,27.24
2018-06-28T10:32:18.853Z,27.30
2018-06-28T10:33:19.791Z,27.31
2018-06-28T10:34:39.386Z,27.42
2018-06-28T10:35:19.335Z,27.45
2018-06-28T10:37:53.168Z,27.68
2018-06-28T10:39:04.737Z,27.76
2018-06-28T10:39:50.740Z,27.81
2018-06-28T10:41:05.280Z,28.02
2018-06-28T10:43:23.609Z,28.18
2018-06-28T10:44:22.661Z,28.15
2018-06-28T10:46:54.278Z,28.13
2018-06-28T10:48:15.390Z,28.13
2018-06-28T10:49:09.455Z,28.03
2018-06-28T10:49:54.661Z,28.06
2018-06-28T10:54:19.376Z,27.98
2018-06-28T10:55:00.383Z,28.06
2018-06-28T10:55:59.315Z,28.03
2018-06-28T10:57:00.883Z,28.14
2018-06-28T10:58:21.882Z,28.05
2018-06-28T10:59:02.816Z,27.66
2018-06-28T10:59:59.383Z,27.62
2018-06-28T11:01:05.384Z,27.42
2018-06-28T11:01:59.384Z,27.33
2018-06-28T11:03:21.838Z,27.38
2018-06-28T11:03:59.409Z,27.30
2018-06-28T11:08:24.225Z,27.83
2018-06-28T11:11:17.437Z,27.77
2018-06-28T11:11:56.438Z,27.91
2018-06-28T11:12:56.449Z,27.90
2018-06-28T11:14:23.945Z,28.03
2018-06-28T11:15:17.161Z,28.06
2018-06-28T11:16:18.069Z,28.11
2018-06-28T11:16:56.945Z,28.15
2018-06-28T11:18:19.401Z,28.30
2018-06-28T11:19:18.449Z,28.38
2018-06-28T11:20:18.447Z,28.27
2018-06-28T11:20:57.445Z,28.24
2018-06-28T11:22:20.947Z,28.09
2018-06-28T11:23:18.160Z,27.98
2018-06-28T11:24:18.948Z,27.83
2018-06-28T11:24:57.946Z,27.71
2018-06-28T11:26:19.446Z,27.83
2018-06-28T11:27:09.879Z,27.87
2018-06-28T11:28:19.456Z,27.76
2018-06-28T11:30:50.349Z,27.76
2018-06-28T11:31:31.542Z,27.66
2018-06-28T11:32:29.536Z,27.61
2018-06-28T11:36:54.266Z,27.39
2018-06-28T11:37:33.270Z,27.31
2018-06-28T11:38:39.769Z,27.38
2018-06-28T11:39:33.777Z,27.59
2018-06-28T11:40:33.769Z,27.76
2018-06-28T11:41:47.772Z,27.78
2018-06-28T11:42:33.774Z,27.98
2018-06-28T11:46:37.002Z,28.36
2018-06-28T11:47:59.984Z,28.40
2018-06-28T11:48:37.010Z,28.46
2018-06-28T11:52:40.757Z,28.35
2018-06-28T11:53:39.977Z,28.35
2018-06-28T11:54:41.693Z,28.32
2018-06-28T11:57:33.345Z,28.60
2018-06-28T11:58:12.346Z,28.61
2018-06-28T11:59:14.319Z,28.73
2018-06-28T12:01:44.111Z,28.87
2018-06-28T12:04:15.634Z,28.89
2018-06-28T12:05:15.074Z,28.95
2018-06-28T12:06:17.574Z,29.12
2018-06-28T12:10:18.887Z,27.95
2018-06-28T12:11:39.881Z,27.80
2018-06-28T12:12:18.877Z,27.62
2018-06-28T12:15:18.146Z,27.88
2018-06-28T12:15:52.143Z,28.15
2018-06-28T12:16:51.145Z,28.30
2018-06-28T12:17:51.145Z,28.65
2018-06-28T12:18:50.753Z,28.73
2018-06-28T12:19:51.646Z,28.77
2018-06-28T12:22:24.398Z,28.36
2018-06-28T12:23:23.695Z,28.11
2018-06-28T12:24:24.355Z,28.13
2018-06-28T12:27:17.116Z,28.18
2018-06-28T12:27:56.124Z,28.24
2018-06-28T12:28:58.075Z,28.36
2018-06-28T12:30:10.625Z,28.46
2018-06-28T12:30:58.671Z,28.40
2018-06-28T12:31:56.624Z,28.40
2018-06-28T12:32:56.623Z,28.42
2018-06-28T12:35:28.398Z,27.88
2018-06-28T12:36:28.404Z,27.78
2018-06-28T12:37:28.404Z,27.72
2018-06-28T12:38:28.023Z,27.66
2018-06-28T12:39:28.911Z,27.72
2018-06-28T12:40:28.907Z,27.74
2018-06-28T12:41:28.916Z,27.74
2018-06-28T12:42:28.517Z,27.91
2018-06-28T12:43:28.638Z,28.01
2018-06-28T12:44:29.413Z,28.17
2018-06-28T12:45:29.405Z,28.48
2018-06-28T12:46:29.930Z,28.73
2018-06-28T12:49:15.314Z,29.33
2018-06-28T12:50:01.300Z,29.18
2018-06-28T12:51:22.302Z,29.45
2018-06-28T12:52:03.274Z,29.60
2018-06-28T12:53:01.801Z,29.84
2018-06-28T12:54:03.732Z,29.66
2018-06-28T12:55:22.815Z,29.32
2018-06-28T12:56:25.301Z,29.21
2018-06-28T12:57:23.300Z,29.03
2018-06-28T12:58:02.303Z,28.82
2018-06-28T12:59:03.259Z,28.61
2018-06-28T13:01:35.753Z,28.30
2018-06-28T13:02:57.497Z,28.55
2018-06-28T13:03:37.415Z,28.69
2018-06-28T13:04:50.994Z,28.92
2018-06-28T13:05:39.916Z,28.98
2018-06-28T13:06:36.983Z,29.00
2018-06-28T13:07:36.990Z,28.80
2018-06-28T13:10:08.744Z,29.21
2018-06-28T13:11:08.753Z,29.18
2018-06-28T13:12:08.748Z,29.14
2018-06-28T13:13:09.253Z,28.97
2018-06-28T13:15:39.916Z,28.73
2018-06-28T13:16:57.098Z,28.57
2018-06-28T13:17:42.597Z,28.57
2018-06-28T13:19:04.141Z,28.43
2018-06-28T13:19:43.140Z,28.48
2018-06-28T13:20:47.142Z,28.43
2018-06-28T13:21:41.147Z,28.55
2018-06-28T13:22:40.768Z,28.57
2018-06-28T13:23:41.643Z,28.28
2018-06-28T13:24:47.128Z,28.23
2018-06-28T13:25:41.642Z,28.08
2018-06-28T13:26:48.149Z,27.96
2018-06-28T13:27:41.406Z,27.84
2018-06-28T13:30:13.682Z,27.55
2018-06-28T13:31:13.695Z,27.52
2018-06-28T13:32:15.642Z,27.53
2018-06-28T13:33:20.182Z,27.39
2018-06-28T13:34:28.186Z,27.27
2018-06-28T13:35:16.194Z,27.25
2018-06-28T13:36:35.187Z,27.16
2018-06-28T13:38:45.972Z,26.98
2018-06-28T13:39:59.969Z,26.84
2018-06-28T13:40:46.001Z,26.96
2018-06-28T13:41:46.784Z,26.97
2018-06-28T13:43:13.465Z,26.90
2018-06-28T13:43:52.480Z,26.88
2018-06-28T13:44:46.477Z,26.73
2018-06-28T13:45:46.066Z,26.66
2018-06-28T13:50:11.270Z,27.68
2018-06-28T13:50:52.283Z,28.08
2018-06-28T13:52:13.251Z,28.33
2018-06-28T13:52:50.297Z,28.70
2018-06-28T13:53:50.780Z,29.05
2018-06-28T13:56:43.180Z,29.48
2018-06-28T13:57:22.202Z,29.81
2018-06-28T13:58:21.668Z,30.11
2018-06-28T13:59:22.648Z,30.11
2018-06-28T14:00:28.693Z,29.78
2018-06-28T14:01:22.711Z,29.27
2018-06-28T14:02:22.702Z,29.25
2018-06-28T14:03:22.468Z,28.85
2018-06-28T14:04:37.194Z,28.25
2018-06-28T14:05:24.124Z,28.30
2018-06-28T14:07:25.693Z,28.17
2018-06-28T14:08:23.722Z,27.93
2018-06-28T14:09:49.125Z,27.62
2018-06-28T14:10:23.693Z,27.55
2018-06-28T14:11:47.193Z,27.55
2018-06-28T14:12:38.188Z,27.78
2018-06-28T14:13:24.191Z,27.83
2018-06-28T14:14:45.193Z,27.84
2018-06-28T14:15:23.800Z,27.78
2018-06-28T14:17:58.087Z,27.35
2018-06-28T14:18:57.054Z,27.21
2018-06-28T14:19:56.102Z,27.16
2018-06-28T14:20:56.094Z,27.15
2018-06-28T14:21:55.723Z,26.96
2018-06-28T14:22:58.526Z,26.98
2018-06-28T14:25:27.386Z,26.97
2018-06-28T14:26:28.118Z,26.81
2018-06-28T14:27:28.119Z,26.76
2018-06-28T14:28:28.627Z,26.83
2018-06-28T14:29:28.627Z,26.84
2018-06-28T14:30:27.987Z,27.05
2018-06-28T14:31:29.072Z,27.11
2018-06-28T14:32:29.118Z,27.63
2018-06-28T14:33:28.353Z,27.95
2018-06-28T14:34:29.118Z,28.20
2018-06-28T14:35:29.118Z,28.62
2018-06-28T14:36:28.719Z,28.97
2018-06-28T14:37:29.618Z,29.11
2018-06-28T14:38:28.977Z,29.35
2018-06-28T14:39:33.152Z,29.18
2018-06-28T14:40:29.223Z,29.49
2018-06-28T14:41:30.119Z,29.62
2018-06-28T14:42:30.119Z,29.88
2018-06-28T14:43:30.118Z,30.11
2018-06-28T14:44:36.620Z,30.36
2018-06-28T14:47:01.593Z,29.60
2018-06-28T14:48:02.515Z,28.91
2018-06-28T14:49:17.486Z,28.67
2018-06-28T14:50:02.515Z,28.40
2018-06-28T14:51:02.947Z,28.38
2018-06-28T14:52:09.015Z,28.36
2018-06-28T14:53:03.024Z,28.36
2018-06-28T14:54:02.516Z,28.24
2018-06-28T14:55:02.621Z,28.36
2018-06-28T14:56:24.523Z,28.55
2018-06-28T14:57:02.914Z,28.52
2018-06-28T14:58:02.988Z,28.58
2018-06-28T14:59:18.025Z,28.87
2018-06-28T15:00:04.458Z,29.08
2018-06-28T15:02:35.484Z,29.25
2018-06-28T15:03:35.488Z,29.18
2018-06-28T15:04:55.953Z,29.17
2018-06-28T15:05:57.030Z,29.30
2018-06-28T15:06:35.994Z,29.47
2018-06-28T15:07:35.989Z,29.27
2018-06-28T15:08:35.988Z,29.35
2018-06-28T15:09:36.013Z,29.39
2018-06-28T15:12:28.362Z,29.85
2018-06-28T15:13:28.448Z,29.71
2018-06-28T15:14:29.302Z,30.03
2018-06-28T15:15:07.643Z,30.15
2018-06-28T15:16:08.290Z,30.04
2018-06-28T15:17:08.797Z,29.74
2018-06-28T15:18:08.792Z,29.33
2018-06-28T15:19:14.795Z,29.10
2018-06-28T15:20:08.791Z,28.65
2018-06-28T15:21:30.294Z,28.39
2018-06-28T15:22:09.288Z,27.99
2018-06-28T15:23:30.288Z,27.69
2018-06-28T15:24:23.300Z,27.53
2018-06-28T15:25:08.896Z,27.46
2018-06-28T15:27:41.699Z,27.40
2018-06-28T15:28:40.900Z,27.34
2018-06-28T15:29:41.009Z,27.34
2018-06-28T15:30:43.150Z,27.33
2018-06-28T15:31:48.184Z,27.34
2018-06-28T15:32:41.430Z,27.31
2018-06-28T15:33:44.188Z,27.39
2018-06-28T15:35:04.177Z,27.53
2018-06-28T15:35:48.681Z,27.74
2018-06-28T15:36:48.684Z,28.01
2018-06-28T15:37:42.679Z,28.08
2018-06-28T15:39:05.135Z,28.28
2018-06-28T15:40:05.641Z,28.25
2018-06-28T15:40:57.177Z,28.36
2018-06-28T15:42:03.520Z,28.60
2018-06-28T15:43:08.612Z,28.67
2018-06-28T15:44:04.680Z,28.73
2018-06-28T15:46:38.068Z,28.50
2018-06-28T15:47:17.073Z,28.38
2018-06-28T15:48:14.554Z,28.27
2018-06-28T15:50:46.856Z,27.91
2018-06-28T15:51:46.864Z,27.83
2018-06-28T15:52:46.860Z,27.76
2018-06-28T15:55:20.638Z,27.77
2018-06-28T15:56:18.636Z,27.77
2018-06-28T15:57:18.644Z,27.66
2018-06-28T15:58:39.224Z,27.65
2018-06-28T15:59:25.142Z,27.63
2018-06-28T16:00:19.143Z,27.62
2018-06-28T16:01:19.136Z,27.48
2018-06-28T16:02:27.075Z,27.34
2018-06-28T16:03:19.638Z,27.38
2018-06-28T16:04:19.636Z,27.40
2018-06-28T16:05:19.636Z,27.42
2018-06-28T16:06:19.671Z,27.43
2018-06-28T16:10:22.872Z,27.65
2018-06-28T16:11:49.911Z,27.74
2018-06-28T16:12:43.880Z,27.65
2018-06-28T16:13:23.380Z,27.61
2018-06-28T16:14:23.382Z,27.62
2018-06-28T16:15:45.820Z,27.91
2018-06-28T16:16:23.394Z,27.78
2018-06-28T16:18:55.175Z,27.63
2018-06-28T16:19:54.538Z,27.59
2018-06-28T16:20:55.182Z,27.50
2018-06-28T16:21:54.793Z,27.30
2018-06-28T16:24:27.073Z,27.16
2018-06-28T16:25:27.080Z,27.11
2018-06-28T16:26:27.088Z,26.98
2018-06-28T16:27:27.577Z,27.03
2018-06-28T16:28:27.579Z,27.03
2018-06-28T16:29:27.581Z,26.90
2018-06-28T16:30:27.583Z,26.78
2018-06-28T16:31:28.082Z,26.87
2018-06-28T16:32:28.079Z,26.83
2018-06-28T16:33:28.087Z,26.78
2018-06-28T16:34:28.580Z,26.65
2018-06-28T16:35:28.580Z,26.76
2018-06-28T16:36:28.583Z,26.75
2018-06-28T16:37:28.580Z,26.65
2018-06-28T16:38:28.058Z,26.50
2018-06-28T16:40:59.679Z,26.56
2018-06-28T16:41:59.788Z,26.56
2018-06-28T16:43:14.866Z,26.71
2018-06-28T16:45:32.133Z,26.65
2018-06-28T16:46:53.140Z,26.60
2018-06-28T16:47:32.139Z,26.68
2018-06-28T16:50:03.897Z,26.72
2018-06-28T16:51:05.360Z,26.71
2018-06-28T16:52:03.904Z,26.68
2018-06-28T16:53:24.493Z,26.73
2018-06-28T16:54:06.403Z,26.73
2018-06-28T16:55:03.767Z,26.73
2018-06-28T16:56:04.405Z,26.76
2018-06-28T16:57:10.907Z,26.79